Time,TemperatureF,DewpointF,PressureIn,WindDirection,WindDirectionDegrees,WindSpeedMPH,WindSpeedGustMPH,Humidity,HourlyPrecipIn,Conditions,Clouds,dailyrainin,SolarRadiationWatts/m^2,SoftwareType,DateUTC
2013-08-02 00:00:00,78.6,65.9,29.76,SSE,154,15.0,18.0,65,0.00,,---,0.00,0.00,VWS V14.01,2013-08-02 05:00:00,
2013-08-02 00:01:00,78.6,65.9,29.75,South,176,10.0,20.0,65,0.00,,---,0.00,0.00,VWS V14.01,2013-08-02 05:01:00,
2013-08-02 00:06:00,78.6,65.4,29.75,South,188,11.0,22.0,64,0.00,,---,0.00,0.00,VWS V14.01,2013-08-02 05:06:00,
2013-08-02 00:11:00,78.8,65.6,29.74,SSE,153,13.0,25.0,64,0.00,,---,0.00,0.00,VWS V14.01,2013-08-02 05:11:00,
2013-08-02 00:16:00,78.8,65.6,29.74,SSE,161,11.0,25.0,64,0.00,,---,0.00,0.00,VWS V14.01,2013-08-02 05:16:00,
2013-08-02 00:21:00,78.8,65.2,29.73,SSE,165,13.0,25.0,63,0.00,,---,0.00,0.00,VWS V14.01,2013-08-02 05:21:00,
2013-08-02 00:26:00,78.8,65.2,29.73,SSE,157,12.0,25.0,63,0.00,,---,0.00,0.00,VWS V14.01,2013-08-02 05:26:00,
2013-08-02 00:30:00,79.0,65.3,29.73,SSW,192,15.0,25.0,63,0.00,,---,0.00,0.00,VWS V14.01,2013-08-02 05:30:00,
2013-08-02 00:32:00,79.0,64.9,29.73,South,178,12.0,21.0,62,0.00,,---,0.00,0.00,VWS V14.01,2013-08-02 05:32:00,
2013-08-02 00:37:00,79.2,65.1,29.72,South,169,12.0,21.0,62,0.00,,---,0.00,0.00,VWS V14.01,2013-08-02 05:37:00,
2013-08-02 00:42:00,79.4,65.3,29.72,SSE,160,18.0,24.0,62,0.00,,---,0.00,0.00,VWS V14.01,2013-08-02 05:42:00,
2013-08-02 00:47:00,79.4,65.3,29.73,SW,215,14.0,24.0,62,0.00,,---,0.00,0.00,VWS V14.01,2013-08-02 05:47:00,
2013-08-02 00:52:00,79.4,65.3,29.73,SW,216,12.0,24.0,62,0.00,,---,0.00,0.00,VWS V14.01,2013-08-02 05:52:00,
2013-08-02 00:57:00,78.8,65.6,29.72,South,178,17.0,24.0,64,0.00,,---,0.00,0.00,VWS V14.01,2013-08-02 05:57:00,
2013-08-02 01:00:00,78.5,65.8,29.73,South,176,19.0,26.0,65,0.00,,---,0.00,0.00,VWS V14.01,2013-08-02 06:00:00,
2013-08-02 01:02:00,78.1,66.3,29.75,SSW,192,10.0,22.0,67,0.00,,---,0.00,0.00,VWS V14.01,2013-08-02 06:02:00,
2013-08-02 01:07:00,76.7,67.0,29.75,South,187,5.0,22.0,72,0.01,,---,0.01,0.00,VWS V14.01,2013-08-02 06:07:00,
2013-08-02 01:12:00,75.4,66.9,29.76,SW,224,4.0,23.0,75,0.01,,---,0.01,0.00,VWS V14.01,2013-08-02 06:12:00,
2013-08-02 01:17:00,75.1,67.4,29.80,NW,316,14.0,23.0,77,0.01,,---,0.01,0.00,VWS V14.01,2013-08-02 06:17:00,
2013-08-02 01:22:00,74.6,67.7,29.81,NNW,338,16.0,23.0,79,0.02,,---,0.02,0.00,VWS V14.01,2013-08-02 06:22:00,
2013-08-02 01:27:00,74.2,67.6,29.79,South,171,2.0,23.0,80,0.03,,---,0.03,0.00,VWS V14.01,2013-08-02 06:27:00,
2013-08-02 01:30:00,74.7,67.0,29.77,SE,138,9.0,23.0,77,0.03,,---,0.03,0.00,VWS V14.01,2013-08-02 06:30:00,
2013-08-02 01:32:00,75.4,66.9,29.77,SE,136,17.0,24.0,75,0.03,,---,0.03,0.00,VWS V14.01,2013-08-02 06:32:00,
2013-08-02 01:37:00,75.6,67.5,29.77,ESE,113,8.0,24.0,76,0.03,,---,0.03,0.00,VWS V14.01,2013-08-02 06:37:00,
2013-08-02 01:42:00,76.0,67.5,29.79,ENE,63,6.0,24.0,75,0.03,,---,0.03,0.00,VWS V14.01,2013-08-02 06:42:00,
2013-08-02 01:47:00,75.3,67.6,29.79,NE,36,5.0,24.0,77,0.03,,---,0.03,0.00,VWS V14.01,2013-08-02 06:47:00,
2013-08-02 01:52:00,74.6,67.7,29.79,NE,47,4.0,24.0,79,0.03,,---,0.03,0.00,VWS V14.01,2013-08-02 06:52:00,
2013-08-02 01:57:00,74.6,68.0,29.80,NE,48,5.0,24.0,80,0.03,,---,0.03,0.00,VWS V14.01,2013-08-02 06:57:00,
2013-08-02 02:00:00,74.0,68.2,29.80,NNE,20,5.0,24.0,82,0.03,,---,0.03,0.00,VWS V14.01,2013-08-02 07:00:00,
2013-08-02 02:02:00,73.7,68.2,29.81,NNE,14,8.0,8.0,83,0.03,,---,0.03,0.00,VWS V14.01,2013-08-02 07:02:00,
2013-08-02 02:07:00,73.9,68.1,29.82,NNE,24,6.0,13.0,82,0.03,,---,0.03,0.00,VWS V14.01,2013-08-02 07:07:00,
2013-08-02 02:12:00,74.4,67.8,29.82,ENE,57,4.0,13.0,80,0.03,,---,0.03,0.00,VWS V14.01,2013-08-02 07:12:00,
2013-08-02 02:17:00,74.4,67.8,29.82,East,89,5.0,13.0,80,0.03,,---,0.03,0.00,VWS V14.01,2013-08-02 07:17:00,
2013-08-02 02:22:00,74.2,68.4,29.80,SE,127,4.0,13.0,82,0.03,,---,0.03,0.00,VWS V14.01,2013-08-02 07:22:00,
2013-08-02 02:27:00,74.0,68.2,29.80,SSE,162,2.0,13.0,82,0.03,,---,0.03,0.00,VWS V14.01,2013-08-02 07:27:00,
2013-08-02 02:30:00,74.0,68.5,29.80,WNW,288,5.0,13.0,83,0.03,,---,0.03,0.00,VWS V14.01,2013-08-02 07:30:00,
2013-08-02 02:32:00,73.9,68.4,29.81,NW,309,7.0,7.0,83,0.00,,---,0.03,0.00,VWS V14.01,2013-08-02 07:32:00,
2013-08-02 02:37:00,73.9,68.8,29.81,WNW,303,2.0,7.0,84,0.00,,---,0.03,0.00,VWS V14.01,2013-08-02 07:37:00,
2013-08-02 02:42:00,73.9,68.8,29.80,WNW,303,3.0,7.0,84,0.00,,---,0.03,0.00,VWS V14.01,2013-08-02 07:42:00,
2013-08-02 02:47:00,73.7,68.9,29.82,NW,315,7.0,13.0,85,0.00,,---,0.03,0.00,VWS V14.01,2013-08-02 07:47:00,
2013-08-02 02:52:00,73.0,68.9,29.81,NNW,338,7.0,13.0,87,0.00,,---,0.03,0.00,VWS V14.01,2013-08-02 07:52:00,
2013-08-02 02:57:00,72.5,68.8,29.82,NNW,345,13.0,16.0,88,0.00,,---,0.03,0.00,VWS V14.01,2013-08-02 07:57:00,
2013-08-02 03:00:00,72.3,68.6,29.82,NNW,335,9.0,19.0,88,0.00,,---,0.03,0.00,VWS V14.01,2013-08-02 08:00:00,
2013-08-02 03:02:00,72.0,68.6,29.83,North,355,14.0,14.0,89,0.00,,---,0.03,0.00,VWS V14.01,2013-08-02 08:02:00,
2013-08-02 03:08:00,71.8,68.4,29.83,North,5,5.0,14.0,89,0.00,,---,0.03,0.00,VWS V14.01,2013-08-02 08:08:00,
2013-08-02 03:17:00,71.5,68.1,29.84,NNE,33,11.0,19.0,89,0.00,,---,0.03,0.00,VWS V14.01,2013-08-02 08:17:00,
2013-08-02 03:22:00,71.1,67.7,29.85,North,5,12.0,19.0,89,0.00,,---,0.03,0.00,VWS V14.01,2013-08-02 08:22:00,
2013-08-02 03:27:00,71.1,68.0,29.84,North,351,23.0,38.0,90,0.01,,---,0.04,0.00,VWS V14.01,2013-08-02 08:27:00,
2013-08-02 03:30:00,71.3,67.9,29.85,North,5,19.0,38.0,89,0.01,,---,0.04,0.00,VWS V14.01,2013-08-02 08:30:00,
2013-08-02 03:32:00,70.8,67.1,29.85,NE,48,22.0,34.0,88,0.01,,---,0.04,0.00,VWS V14.01,2013-08-02 08:32:00,
2013-08-02 03:37:00,69.6,65.2,29.87,North,5,24.0,34.0,86,0.01,,---,0.04,0.00,VWS V14.01,2013-08-02 08:37:00,
2013-08-02 03:42:00,68.9,64.9,29.88,NE,38,28.0,34.0,87,0.01,,---,0.04,0.00,VWS V14.01,2013-08-02 08:42:00,
2013-08-02 03:47:00,68.3,64.0,29.89,ENE,67,22.0,36.0,86,0.01,,---,0.04,0.00,VWS V14.01,2013-08-02 08:47:00,
2013-08-02 03:52:00,67.8,63.8,29.89,NE,42,17.0,36.0,87,0.01,,---,0.04,0.00,VWS V14.01,2013-08-02 08:52:00,
2013-08-02 03:57:00,67.6,63.9,29.89,ENE,77,20.0,36.0,88,0.01,,---,0.04,0.00,VWS V14.01,2013-08-02 08:57:00,
2013-08-02 04:00:00,67.4,63.7,29.89,ENE,76,14.0,36.0,88,0.01,,---,0.04,0.00,VWS V14.01,2013-08-02 09:00:00,
2013-08-02 04:02:00,67.4,63.7,29.89,ENE,77,14.0,23.0,88,0.01,,---,0.04,0.00,VWS V14.01,2013-08-02 09:02:00,
2013-08-02 04:08:00,67.3,63.6,29.88,NE,41,21.0,24.0,88,0.01,,---,0.04,0.00,VWS V14.01,2013-08-02 09:08:00,
2013-08-02 04:13:00,66.9,63.2,29.89,NNE,20,20.0,25.0,88,0.01,,---,0.04,0.00,VWS V14.01,2013-08-02 09:13:00,
2013-08-02 04:18:00,66.8,62.8,29.89,NNE,23,13.0,28.0,87,0.01,,---,0.04,0.00,VWS V14.01,2013-08-02 09:18:00,
2013-08-02 04:23:00,66.6,62.6,29.89,NE,40,17.0,28.0,87,0.01,,---,0.04,0.00,VWS V14.01,2013-08-02 09:23:00,
2013-08-02 04:28:00,66.3,61.7,29.87,NE,55,18.0,28.0,85,0.01,,---,0.04,0.00,VWS V14.01,2013-08-02 09:28:00,
2013-08-02 04:30:00,66.3,62.3,29.87,NE,46,18.0,28.0,87,0.01,,---,0.04,0.00,VWS V14.01,2013-08-02 09:30:00,
2013-08-02 04:33:00,66.3,62.0,29.87,NE,55,14.0,28.0,86,0.00,,---,0.04,0.00,VWS V14.01,2013-08-02 09:33:00,
2013-08-02 04:38:00,66.3,61.7,29.87,ENE,59,11.0,28.0,85,0.00,,---,0.04,0.00,VWS V14.01,2013-08-02 09:38:00,
2013-08-02 04:43:00,66.1,61.5,29.86,ENE,65,11.0,28.0,85,0.00,,---,0.04,0.00,VWS V14.01,2013-08-02 09:43:00,
2013-08-02 04:50:00,66.3,61.0,29.85,ENE,58,20.0,28.0,83,0.00,,---,0.04,0.00,VWS V14.01,2013-08-02 09:50:00,
2013-08-02 04:55:00,66.8,60.8,29.84,NNE,19,9.0,28.0,81,0.00,,---,0.04,0.00,VWS V14.01,2013-08-02 09:55:00,
2013-08-02 05:00:00,66.9,60.9,29.83,ENE,78,11.0,15.0,81,0.00,,---,0.04,0.00,VWS V14.01,2013-08-02 10:00:00,
2013-08-02 05:05:00,66.9,60.9,29.82,ENE,62,11.0,21.0,81,0.00,,---,0.04,0.00,VWS V14.01,2013-08-02 10:05:00,
2013-08-02 05:10:00,66.8,61.1,29.81,East,81,17.0,21.0,82,0.00,,---,0.04,0.00,VWS V14.01,2013-08-02 10:10:00,
2013-08-02 05:15:00,66.8,61.1,29.81,East,82,14.0,23.0,82,0.00,,---,0.04,0.00,VWS V14.01,2013-08-02 10:15:00,
2013-08-02 05:20:00,66.9,60.9,29.81,East,81,15.0,23.0,81,0.00,,---,0.04,0.00,VWS V14.01,2013-08-02 10:20:00,
2013-08-02 05:25:00,66.9,61.6,29.81,East,88,10.0,23.0,83,0.00,,---,0.04,0.00,VWS V14.01,2013-08-02 10:25:00,
2013-08-02 05:30:00,66.9,60.9,29.81,NE,51,10.0,16.0,81,0.00,,---,0.04,0.00,VWS V14.01,2013-08-02 10:30:00,
2013-08-02 05:35:00,66.9,60.9,29.81,ESE,112,15.0,23.0,81,0.00,,---,0.04,0.00,VWS V14.01,2013-08-02 10:35:00,
2013-08-02 05:40:00,66.9,61.2,29.81,East,94,19.0,23.0,82,0.00,,---,0.04,0.00,VWS V14.01,2013-08-02 10:40:00,
2013-08-02 05:45:00,66.8,61.5,29.81,ESE,122,5.0,23.0,83,0.00,,---,0.04,0.00,VWS V14.01,2013-08-02 10:45:00,
2013-08-02 05:50:00,66.4,61.8,29.81,ESE,119,15.0,23.0,85,0.00,,---,0.04,0.00,VWS V14.01,2013-08-02 10:50:00,
2013-08-02 05:55:00,66.3,62.0,29.81,ESE,107,13.0,23.0,86,0.00,,---,0.04,0.00,VWS V14.01,2013-08-02 10:55:00,
2013-08-02 06:00:00,66.3,62.0,29.81,SE,126,13.0,14.0,86,0.00,,---,0.04,0.00,VWS V14.01,2013-08-02 11:00:00,
2013-08-02 06:05:00,66.1,61.8,29.81,ESE,123,9.0,15.0,86,0.00,,---,0.04,0.00,VWS V14.01,2013-08-02 11:05:00,
2013-08-02 06:10:00,66.1,61.8,29.81,SE,133,8.0,15.0,86,0.00,,---,0.04,0.00,VWS V14.01,2013-08-02 11:10:00,
2013-08-02 06:15:00,66.1,61.8,29.81,SE,125,11.0,18.0,86,0.00,,---,0.04,0.00,VWS V14.01,2013-08-02 11:15:00,
2013-08-02 06:20:00,66.1,61.8,29.81,SE,132,16.0,21.0,86,0.00,,---,0.04,0.00,VWS V14.01,2013-08-02 11:20:00,
2013-08-02 06:25:00,66.3,61.7,29.80,ESE,119,12.0,22.0,85,0.00,,---,0.04,0.00,VWS V14.01,2013-08-02 11:25:00,
2013-08-02 06:30:00,66.4,61.4,29.79,ENE,73,14.0,16.0,84,0.00,,---,0.04,0.00,VWS V14.01,2013-08-02 11:30:00,
2013-08-02 06:35:00,66.3,61.7,29.78,ESE,111,20.0,21.0,85,0.00,,---,0.04,0.00,VWS V14.01,2013-08-02 11:35:00,
2013-08-02 06:40:00,66.3,61.7,29.78,ESE,117,13.0,21.0,85,0.00,,---,0.04,5.00,VWS V14.01,2013-08-02 11:40:00,
2013-08-02 06:45:00,66.3,61.7,29.78,ENE,69,6.0,21.0,85,0.00,,---,0.04,7.00,VWS V14.01,2013-08-02 11:45:00,
2013-08-02 06:50:00,66.3,61.7,29.79,ESE,109,12.0,21.0,85,0.00,,---,0.04,9.00,VWS V14.01,2013-08-02 11:50:00,
2013-08-02 06:55:00,66.4,61.8,29.78,East,84,4.0,21.0,85,0.00,,---,0.04,11.00,VWS V14.01,2013-08-02 11:55:00,
2013-08-02 07:00:00,66.4,61.8,29.78,ESE,119,7.0,15.0,85,0.00,,---,0.04,14.00,VWS V14.01,2013-08-02 12:00:00,
2013-08-02 07:05:00,66.6,62.0,29.78,SE,127,8.0,15.0,85,0.00,,---,0.04,23.00,VWS V14.01,2013-08-02 12:05:00,
2013-08-02 07:10:00,66.6,62.0,29.78,SSE,165,7.0,16.0,85,0.00,,---,0.04,35.00,VWS V14.01,2013-08-02 12:10:00,
2013-08-02 07:15:00,66.8,62.2,29.78,SE,129,9.0,16.0,85,0.00,,---,0.04,40.00,VWS V14.01,2013-08-02 12:15:00,
2013-08-02 07:20:00,66.8,62.2,29.78,SSE,163,8.0,18.0,85,0.00,,---,0.04,54.00,VWS V14.01,2013-08-02 12:20:00,
2013-08-02 07:25:00,66.6,62.3,29.77,SSE,159,8.0,18.0,86,0.00,,---,0.04,91.00,VWS V14.01,2013-08-02 12:25:00,
2013-08-02 07:30:00,66.8,62.5,29.78,SSE,168,5.0,7.0,86,0.00,,---,0.04,81.00,VWS V14.01,2013-08-02 12:30:00,
2013-08-02 07:35:00,66.9,62.6,29.78,SSE,163,5.0,7.0,86,0.00,,---,0.04,127.00,VWS V14.01,2013-08-02 12:35:00,
2013-08-02 07:40:00,67.3,62.6,29.77,SE,143,8.0,12.0,85,0.00,,---,0.04,144.00,VWS V14.01,2013-08-02 12:40:00,
2013-08-02 07:45:00,67.6,62.9,29.77,SSE,155,8.0,12.0,85,0.00,,---,0.04,160.00,VWS V14.01,2013-08-02 12:45:00,
2013-08-02 07:50:00,67.9,62.9,29.77,SSE,163,6.0,12.0,84,0.00,,---,0.04,165.00,VWS V14.01,2013-08-02 12:50:00,
2013-08-02 07:55:00,68.1,63.1,29.77,ESE,109,8.0,14.0,84,0.00,,---,0.04,183.00,VWS V14.01,2013-08-02 12:55:00,
2013-08-02 08:00:00,68.6,63.2,29.77,SSE,165,5.0,7.0,83,0.00,,---,0.04,195.00,VWS V14.01,2013-08-02 13:00:00,
2013-08-02 08:05:00,68.8,63.1,29.78,SSE,167,10.0,14.0,82,0.00,,---,0.04,214.00,VWS V14.01,2013-08-02 13:05:00,
2013-08-02 08:11:00,69.3,63.6,29.78,SSE,157,9.0,14.0,82,0.00,,---,0.04,223.00,VWS V14.01,2013-08-02 13:11:00,
2013-08-02 08:16:00,69.4,63.3,29.78,SE,130,7.0,14.0,81,0.00,,---,0.04,230.00,VWS V14.01,2013-08-02 13:16:00,
2013-08-02 08:21:00,69.3,63.2,29.77,South,169,6.0,14.0,81,0.00,,---,0.04,60.00,VWS V14.01,2013-08-02 13:21:00,
2013-08-02 08:26:00,69.3,63.2,29.77,SSE,148,8.0,14.0,81,0.00,,---,0.04,70.00,VWS V14.01,2013-08-02 13:26:00,
2013-08-02 08:30:00,69.6,63.5,29.77,SSE,157,7.0,14.0,81,0.00,,---,0.04,287.00,VWS V14.01,2013-08-02 13:30:00,
2013-08-02 08:31:00,69.6,63.5,29.77,SSE,148,12.0,13.0,81,0.00,,---,0.04,121.00,VWS V14.01,2013-08-02 13:31:00,
2013-08-02 08:36:00,69.8,63.4,29.77,SE,125,9.0,13.0,80,0.00,,---,0.04,281.00,VWS V14.01,2013-08-02 13:36:00,
2013-08-02 08:41:00,70.3,63.5,29.77,SSW,192,7.0,14.0,79,0.00,,---,0.04,373.00,VWS V14.01,2013-08-02 13:41:00,
2013-08-02 08:46:00,70.9,63.7,29.76,SSE,155,7.0,14.0,78,0.00,,---,0.04,378.00,VWS V14.01,2013-08-02 13:46:00,
2013-08-02 08:51:00,71.5,63.5,29.76,SSE,161,11.0,14.0,76,0.00,,---,0.04,352.00,VWS V14.01,2013-08-02 13:51:00,
2013-08-02 08:56:00,71.6,63.6,29.76,SE,133,11.0,14.0,76,0.00,,---,0.04,350.00,VWS V14.01,2013-08-02 13:56:00,
2013-08-02 09:00:00,72.0,64.0,29.76,SE,146,8.0,14.0,76,0.00,,---,0.04,366.00,VWS V14.01,2013-08-02 14:00:00,
2013-08-02 09:01:00,72.0,64.0,29.76,SE,142,12.0,12.0,76,0.00,,---,0.04,367.00,VWS V14.01,2013-08-02 14:01:00,
2013-08-02 09:06:00,72.3,64.3,29.76,SSE,154,5.0,13.0,76,0.00,,---,0.04,376.00,VWS V14.01,2013-08-02 14:06:00,
2013-08-02 09:11:00,72.5,64.1,29.76,South,191,9.0,15.0,75,0.00,,---,0.04,385.00,VWS V14.01,2013-08-02 14:11:00,
2013-08-02 09:16:00,72.7,63.9,29.76,SW,215,10.0,16.0,74,0.00,,---,0.04,394.00,VWS V14.01,2013-08-02 14:16:00,
2013-08-02 09:21:00,72.8,64.4,29.76,SSE,167,9.0,16.0,75,0.00,,---,0.04,415.00,VWS V14.01,2013-08-02 14:21:00,
2013-08-02 09:26:00,73.3,64.9,29.76,SSE,158,5.0,16.0,75,0.00,,---,0.04,436.00,VWS V14.01,2013-08-02 14:26:00,
2013-08-02 09:30:00,73.9,65.1,29.76,SSE,149,8.0,16.0,74,0.00,,---,0.04,439.00,VWS V14.01,2013-08-02 14:30:00,
2013-08-02 09:31:00,74.0,65.2,29.75,South,178,7.0,13.0,74,0.00,,---,0.04,448.00,VWS V14.01,2013-08-02 14:31:00,
2013-08-02 09:36:00,74.7,65.9,29.76,SSE,148,5.0,15.0,74,0.00,,---,0.04,464.00,VWS V14.01,2013-08-02 14:36:00,
2013-08-02 09:41:00,75.4,65.3,29.76,South,186,7.0,15.0,71,0.00,,---,0.04,478.00,VWS V14.01,2013-08-02 14:41:00,
2013-08-02 09:47:00,76.0,65.5,29.76,South,178,10.0,15.0,70,0.00,,---,0.04,492.00,VWS V14.01,2013-08-02 14:47:00,
2013-08-02 09:52:00,76.1,65.6,29.75,SSE,163,7.0,15.0,70,0.00,,---,0.04,508.00,VWS V14.01,2013-08-02 14:52:00,
2013-08-02 09:57:00,76.5,66.0,29.75,SSE,150,11.0,15.0,70,0.00,,---,0.04,522.00,VWS V14.01,2013-08-02 14:57:00,
2013-08-02 10:00:00,76.8,66.3,29.75,SE,145,8.0,15.0,70,0.00,,---,0.04,531.00,VWS V14.01,2013-08-02 15:00:00,
2013-08-02 10:02:00,77.0,66.5,29.75,SSE,155,1.0,13.0,70,0.00,,---,0.04,534.00,VWS V14.01,2013-08-02 15:02:00,
2013-08-02 10:07:00,78.1,67.1,29.75,SSE,157,7.0,13.0,69,0.00,,---,0.04,548.00,VWS V14.01,2013-08-02 15:07:00,
2013-08-02 10:12:00,78.8,67.4,29.75,SSE,155,7.0,13.0,68,0.00,,---,0.04,561.00,VWS V14.01,2013-08-02 15:12:00,
2013-08-02 10:17:00,79.4,67.5,29.75,SSE,160,10.0,13.0,67,0.00,,---,0.04,573.00,VWS V14.01,2013-08-02 15:17:00,
2013-08-02 10:22:00,79.9,68.0,29.76,SSE,149,8.0,13.0,67,0.00,,---,0.04,589.00,VWS V14.01,2013-08-02 15:22:00,
2013-08-02 10:27:00,80.3,68.3,29.75,South,178,8.0,13.0,67,0.00,,---,0.04,599.00,VWS V14.01,2013-08-02 15:27:00,
2013-08-02 10:30:00,80.7,69.2,29.75,SSW,208,8.0,13.0,68,0.00,,---,0.04,605.00,VWS V14.01,2013-08-02 15:30:00,
2013-08-02 10:32:00,80.9,68.5,29.75,SE,133,8.0,13.0,66,0.00,,---,0.04,610.00,VWS V14.01,2013-08-02 15:32:00,
2013-08-02 10:37:00,80.9,69.4,29.75,South,186,5.0,13.0,68,0.00,,---,0.04,624.00,VWS V14.01,2013-08-02 15:37:00,
2013-08-02 10:42:00,81.1,69.1,29.75,SSE,148,11.0,15.0,67,0.00,,---,0.04,635.00,VWS V14.01,2013-08-02 15:42:00,
2013-08-02 10:47:00,81.1,70.0,29.75,SSW,209,9.0,15.0,69,0.00,,---,0.04,649.00,VWS V14.01,2013-08-02 15:47:00,
2013-08-02 10:52:00,81.4,69.8,29.75,SSE,167,12.0,15.0,68,0.00,,---,0.04,661.00,VWS V14.01,2013-08-02 15:52:00,
2013-08-02 10:57:00,82.0,70.4,29.75,SE,139,8.0,16.0,68,0.00,,---,0.04,670.00,VWS V14.01,2013-08-02 15:57:00,
2013-08-02 11:00:00,82.2,70.2,29.75,South,183,12.0,17.0,67,0.00,,---,0.04,677.00,VWS V14.01,2013-08-02 16:00:00,
2013-08-02 11:02:00,82.0,70.0,29.75,SSE,151,12.0,13.0,67,0.00,,---,0.04,682.00,VWS V14.01,2013-08-02 16:02:00,
2013-08-02 11:07:00,82.4,70.3,29.75,SE,145,14.0,14.0,67,0.00,,---,0.04,689.00,VWS V14.01,2013-08-02 16:07:00,
2013-08-02 11:12:00,82.0,70.4,29.75,SSE,154,12.0,18.0,68,0.00,,---,0.04,701.00,VWS V14.01,2013-08-02 16:12:00,
2013-08-02 11:17:00,81.8,70.2,29.75,SE,139,10.0,18.0,68,0.00,,---,0.04,712.00,VWS V14.01,2013-08-02 16:17:00,
2013-08-02 11:22:00,82.4,70.8,29.75,SSE,153,10.0,18.0,68,0.00,,---,0.04,721.00,VWS V14.01,2013-08-02 16:22:00,
2013-08-02 11:27:00,82.8,70.7,29.75,SSE,167,10.0,18.0,67,0.00,,---,0.04,731.00,VWS V14.01,2013-08-02 16:27:00,
2013-08-02 11:30:00,82.8,70.3,29.75,SE,135,8.0,18.0,66,0.00,,---,0.04,735.00,VWS V14.01,2013-08-02 16:30:00,
2013-08-02 11:32:00,83.0,70.5,29.74,SSE,157,10.0,16.0,66,0.00,,---,0.04,740.00,VWS V14.01,2013-08-02 16:32:00,
2013-08-02 11:37:00,83.2,71.1,29.74,SSE,148,7.0,16.0,67,0.00,,---,0.04,751.00,VWS V14.01,2013-08-02 16:37:00,
2013-08-02 11:42:00,83.8,70.8,29.75,SSE,153,10.0,16.0,65,0.00,,---,0.04,754.00,VWS V14.01,2013-08-02 16:42:00,
2013-08-02 11:47:00,84.0,71.4,29.75,SSE,148,14.0,18.0,66,0.00,,---,0.04,765.00,VWS V14.01,2013-08-02 16:47:00,
2013-08-02 11:52:00,84.3,71.3,29.74,South,172,5.0,18.0,65,0.00,,---,0.04,768.00,VWS V14.01,2013-08-02 16:52:00,
2013-08-02 11:57:00,84.9,71.4,29.74,SSE,165,12.0,18.0,64,0.00,,---,0.04,784.00,VWS V14.01,2013-08-02 16:57:00,
2013-08-02 12:00:00,84.9,71.4,29.74,SSE,166,11.0,18.0,64,0.00,,---,0.04,782.00,VWS V14.01,2013-08-02 17:00:00,
2013-08-02 12:02:00,84.9,71.4,29.74,SSE,154,6.0,13.0,64,0.00,,---,0.04,791.00,VWS V14.01,2013-08-02 17:02:00,
2013-08-02 12:07:00,85.3,71.3,29.74,SSE,150,9.0,13.0,63,0.00,,---,0.04,798.00,VWS V14.01,2013-08-02 17:07:00,
2013-08-02 12:12:00,85.5,71.5,29.74,South,186,8.0,15.0,63,0.00,,---,0.04,796.00,VWS V14.01,2013-08-02 17:12:00,
2013-08-02 12:17:00,85.5,71.9,29.74,South,190,10.0,15.0,64,0.00,,---,0.04,809.00,VWS V14.01,2013-08-02 17:17:00,
2013-08-02 12:22:00,85.7,71.7,29.74,ESE,109,2.0,15.0,63,0.00,,---,0.04,810.00,VWS V14.01,2013-08-02 17:22:00,
2013-08-02 12:27:00,85.7,71.7,29.74,South,185,7.0,21.0,63,0.00,,---,0.04,828.00,VWS V14.01,2013-08-02 17:27:00,
2013-08-02 12:30:00,85.9,71.8,29.74,SSW,199,9.0,21.0,63,0.00,,---,0.04,824.00,VWS V14.01,2013-08-02 17:30:00,
2013-08-02 12:33:00,85.9,71.4,29.74,SSE,160,9.0,17.0,62,0.00,,---,0.04,809.00,VWS V14.01,2013-08-02 17:33:00,
2013-08-02 12:38:00,85.9,71.8,29.74,South,182,8.0,17.0,63,0.00,,---,0.04,840.00,VWS V14.01,2013-08-02 17:38:00,
2013-08-02 12:43:00,85.9,71.8,29.74,SSE,155,8.0,17.0,63,0.00,,---,0.04,863.00,VWS V14.01,2013-08-02 17:43:00,
2013-08-02 12:48:00,86.5,72.4,29.74,SW,218,5.0,17.0,63,0.00,,---,0.04,974.00,VWS V14.01,2013-08-02 17:48:00,
2013-08-02 12:53:00,87.2,72.6,29.73,SW,214,7.0,17.0,62,0.00,,---,0.04,891.00,VWS V14.01,2013-08-02 17:53:00,
2013-08-02 12:58:00,87.4,72.3,29.73,SSW,199,2.0,17.0,61,0.00,,---,0.04,902.00,VWS V14.01,2013-08-02 17:58:00,
2013-08-02 13:00:00,87.4,71.8,29.73,SW,236,8.0,17.0,60,0.00,,---,0.04,905.00,VWS V14.01,2013-08-02 18:00:00,
2013-08-02 13:03:00,87.8,72.7,29.73,SSE,153,10.0,12.0,61,0.00,,---,0.04,965.00,VWS V14.01,2013-08-02 18:03:00,
2013-08-02 13:08:00,87.6,72.5,29.73,South,177,14.0,17.0,61,0.00,,---,0.04,954.00,VWS V14.01,2013-08-02 18:08:00,
2013-08-02 13:13:00,87.8,72.7,29.73,South,179,16.0,17.0,61,0.00,,---,0.04,1011.00,VWS V14.01,2013-08-02 18:13:00,
2013-08-02 13:18:00,88.0,71.4,29.73,SW,223,11.0,17.0,58,0.00,,---,0.04,1071.00,VWS V14.01,2013-08-02 18:18:00,
2013-08-02 13:23:00,87.8,72.7,29.73,SSW,198,0.0,17.0,61,0.00,,---,0.04,687.00,VWS V14.01,2013-08-02 18:23:00,
2013-08-02 13:28:00,88.0,72.4,29.74,South,173,9.0,17.0,60,0.00,,---,0.04,886.00,VWS V14.01,2013-08-02 18:28:00,
2013-08-02 13:30:00,88.0,72.9,29.74,SSW,200,13.0,17.0,61,0.00,,---,0.04,510.00,VWS V14.01,2013-08-02 18:30:00,
2013-08-02 13:33:00,88.0,72.4,29.73,South,179,2.0,13.0,60,0.00,,---,0.04,362.00,VWS V14.01,2013-08-02 18:33:00,
2013-08-02 13:38:00,87.8,72.2,29.74,SW,227,10.0,13.0,60,0.00,,---,0.04,320.00,VWS V14.01,2013-08-02 18:38:00,
2013-08-02 13:43:00,86.7,72.1,29.73,SW,227,6.0,14.0,62,0.00,,---,0.04,422.00,VWS V14.01,2013-08-02 18:43:00,
2013-08-02 13:48:00,87.2,72.1,29.73,SSW,209,4.0,14.0,61,0.00,,---,0.04,424.00,VWS V14.01,2013-08-02 18:48:00,
2013-08-02 13:53:00,87.4,72.8,29.73,South,183,2.0,14.0,62,0.00,,---,0.04,357.00,VWS V14.01,2013-08-02 18:53:00,
2013-08-02 13:58:00,87.4,72.8,29.73,SSW,210,6.0,14.0,62,0.00,,---,0.04,352.00,VWS V14.01,2013-08-02 18:58:00,
2013-08-02 14:00:00,87.4,72.3,29.73,SSW,212,0.0,14.0,61,0.00,,---,0.04,311.00,VWS V14.01,2013-08-02 19:00:00,
2013-08-02 14:03:00,87.4,72.3,29.73,SSW,198,4.0,13.0,61,0.00,,---,0.04,290.00,VWS V14.01,2013-08-02 19:03:00,
2013-08-02 14:08:00,87.2,72.6,29.73,SSW,205,5.0,13.0,62,0.00,,---,0.04,315.00,VWS V14.01,2013-08-02 19:08:00,
2013-08-02 14:13:00,87.0,72.4,29.73,SSW,210,3.0,13.0,62,0.00,,---,0.04,322.00,VWS V14.01,2013-08-02 19:13:00,
2013-08-02 14:18:00,87.4,72.8,29.73,SW,225,2.0,13.0,62,0.00,,---,0.04,374.00,VWS V14.01,2013-08-02 19:18:00,
2013-08-02 14:23:00,88.0,72.4,29.73,SW,235,6.0,13.0,60,0.00,,---,0.04,355.00,VWS V14.01,2013-08-02 19:23:00,
2013-08-02 14:28:00,88.4,71.2,29.73,WSW,252,1.0,13.0,57,0.00,,---,0.04,315.00,VWS V14.01,2013-08-02 19:28:00,
2013-08-02 14:30:00,88.4,71.8,29.73,West,266,5.0,13.0,58,0.00,,---,0.04,330.00,VWS V14.01,2013-08-02 19:30:00,
2013-08-02 14:33:00,88.2,72.6,29.73,SSW,201,3.0,9.0,60,0.00,,---,0.04,387.00,VWS V14.01,2013-08-02 19:33:00,
2013-08-02 14:38:00,88.4,72.8,29.73,SW,222,4.0,9.0,60,0.00,,---,0.04,388.00,VWS V14.01,2013-08-02 19:38:00,
2013-08-02 14:43:00,88.6,72.9,29.73,SSE,165,1.0,9.0,60,0.00,,---,0.04,320.00,VWS V14.01,2013-08-02 19:43:00,
2013-08-02 14:48:00,89.9,73.2,29.73,WSW,240,3.0,9.0,58,0.00,,---,0.04,327.00,VWS V14.01,2013-08-02 19:48:00,
2013-08-02 14:53:00,90.3,72.5,29.73,SSE,161,4.0,9.0,56,0.00,,---,0.04,376.00,VWS V14.01,2013-08-02 19:53:00,
2013-08-02 14:58:00,91.2,72.8,29.73,SSW,202,4.0,9.0,55,0.00,,---,0.04,355.00,VWS V14.01,2013-08-02 19:58:00,
2013-08-02 15:00:00,91.4,73.5,29.73,SW,217,4.0,10.0,56,0.00,,---,0.04,260.00,VWS V14.01,2013-08-02 20:00:00,
2013-08-02 15:03:00,90.3,72.5,29.73,SW,234,2.0,8.0,56,0.00,,---,0.04,253.00,VWS V14.01,2013-08-02 20:03:00,
2013-08-02 15:08:00,89.0,72.8,29.73,SSW,198,1.0,8.0,59,0.00,,---,0.04,243.00,VWS V14.01,2013-08-02 20:08:00,
2013-08-02 15:13:00,88.6,73.4,29.72,SSW,192,1.0,10.0,61,0.00,,---,0.04,258.00,VWS V14.01,2013-08-02 20:13:00,
2013-08-02 15:18:00,88.6,72.9,29.73,ENE,76,4.0,13.0,60,0.00,,---,0.04,404.00,VWS V14.01,2013-08-02 20:18:00,
2013-08-02 15:23:00,88.8,73.1,29.73,SSW,197,1.0,13.0,60,0.00,,---,0.04,380.00,VWS V14.01,2013-08-02 20:23:00,
2013-08-02 15:28:00,89.3,73.1,29.72,SE,142,6.0,13.0,59,0.00,,---,0.04,369.00,VWS V14.01,2013-08-02 20:28:00,
2013-08-02 15:30:00,89.0,72.8,29.72,SSE,148,7.0,13.0,59,0.00,,---,0.04,369.00,VWS V14.01,2013-08-02 20:30:00,
2013-08-02 15:33:00,88.6,72.4,29.72,SSE,161,8.0,10.0,59,0.00,,---,0.04,294.00,VWS V14.01,2013-08-02 20:33:00,
2013-08-02 15:38:00,88.0,72.9,29.72,SSW,198,7.0,10.0,61,0.00,,---,0.04,295.00,VWS V14.01,2013-08-02 20:38:00,
2013-08-02 15:43:00,88.0,73.8,29.72,South,178,5.0,10.0,63,0.00,,---,0.04,276.00,VWS V14.01,2013-08-02 20:43:00,
2013-08-02 15:48:00,88.0,73.4,29.72,SSW,210,0.0,11.0,62,0.00,,---,0.04,250.00,VWS V14.01,2013-08-02 20:48:00,
2013-08-02 15:53:00,88.0,73.4,29.72,SSE,163,0.0,11.0,62,0.00,,---,0.04,221.00,VWS V14.01,2013-08-02 20:53:00,
2013-08-02 15:58:00,87.8,73.2,29.72,SSW,211,6.0,11.0,62,0.00,,---,0.04,253.00,VWS V14.01,2013-08-02 20:58:00,
2013-08-02 16:00:00,87.8,73.2,29.72,SW,215,4.0,11.0,62,0.00,,---,0.04,265.00,VWS V14.01,2013-08-02 21:00:00,
2013-08-02 16:03:00,87.8,73.6,29.72,South,182,5.0,8.0,63,0.00,,---,0.04,359.00,VWS V14.01,2013-08-02 21:03:00,
2013-08-02 16:08:00,88.0,73.8,29.72,SSE,163,7.0,10.0,63,0.00,,---,0.04,387.00,VWS V14.01,2013-08-02 21:08:00,
2013-08-02 16:13:00,87.8,73.6,29.72,SSE,161,6.0,11.0,63,0.00,,---,0.04,483.00,VWS V14.01,2013-08-02 21:13:00,
2013-08-02 16:18:00,88.4,73.7,29.72,SSE,168,6.0,11.0,62,0.00,,---,0.04,888.00,VWS V14.01,2013-08-02 21:18:00,
2013-08-02 16:23:00,89.0,74.3,29.72,South,183,0.0,11.0,62,0.00,,---,0.04,849.00,VWS V14.01,2013-08-02 21:23:00,
2013-08-02 16:28:00,89.9,73.2,29.72,WSW,242,3.0,11.0,58,0.00,,---,0.04,789.00,VWS V14.01,2013-08-02 21:28:00,
2013-08-02 16:30:00,89.9,73.2,29.72,SSE,148,6.0,11.0,58,0.00,,---,0.04,501.00,VWS V14.01,2013-08-02 21:30:00,
2013-08-02 16:33:00,89.7,73.0,29.72,SSW,204,4.0,6.0,58,0.00,,---,0.04,489.00,VWS V14.01,2013-08-02 21:33:00,
2013-08-02 16:38:00,89.9,74.2,29.73,South,184,6.0,6.0,60,0.00,,---,0.04,763.00,VWS V14.01,2013-08-02 21:38:00,
2013-08-02 16:43:00,90.1,74.3,29.72,SSE,150,2.0,8.0,60,0.00,,---,0.04,279.00,VWS V14.01,2013-08-02 21:43:00,
2013-08-02 16:48:00,89.7,73.5,29.72,South,174,5.0,9.0,59,0.00,,---,0.04,207.00,VWS V14.01,2013-08-02 21:48:00,
2013-08-02 16:53:00,88.8,73.6,29.72,South,175,7.0,12.0,61,0.00,,---,0.04,269.00,VWS V14.01,2013-08-02 21:53:00,
2013-08-02 16:58:00,88.4,73.7,29.72,SSE,167,4.0,12.0,62,0.00,,---,0.04,272.00,VWS V14.01,2013-08-02 21:58:00,
2013-08-02 17:00:00,88.4,74.2,29.72,South,182,9.0,12.0,63,0.00,,---,0.04,271.00,VWS V14.01,2013-08-02 22:00:00,
2013-08-02 17:03:00,88.0,73.8,29.72,SE,138,6.0,9.0,63,0.00,,---,0.04,262.00,VWS V14.01,2013-08-02 22:03:00,
2013-08-02 17:09:00,87.8,73.2,29.72,South,173,8.0,9.0,62,0.00,,---,0.04,234.00,VWS V14.01,2013-08-02 22:09:00,
2013-08-02 17:14:00,87.8,72.7,29.72,South,171,5.0,9.0,61,0.00,,---,0.04,220.00,VWS V14.01,2013-08-02 22:14:00,
2013-08-02 17:19:00,87.8,72.7,29.72,South,185,3.0,9.0,61,0.00,,---,0.04,214.00,VWS V14.01,2013-08-02 22:19:00,
2013-08-02 17:24:00,88.0,72.4,29.72,SSE,159,7.0,9.0,60,0.00,,---,0.04,188.00,VWS V14.01,2013-08-02 22:24:00,
2013-08-02 17:29:00,88.0,72.9,29.72,SSE,159,2.0,9.0,61,0.00,,---,0.04,181.00,VWS V14.01,2013-08-02 22:29:00,
2013-08-02 17:30:00,88.0,72.9,29.72,SSE,159,1.0,9.0,61,0.00,,---,0.04,183.00,VWS V14.01,2013-08-02 22:30:00,
2013-08-02 17:34:00,88.2,73.1,29.72,SSE,159,4.0,5.0,61,0.00,,---,0.04,192.00,VWS V14.01,2013-08-02 22:34:00,
2013-08-02 17:39:00,88.0,72.9,29.72,SSE,150,5.0,6.0,61,0.00,,---,0.04,193.00,VWS V14.01,2013-08-02 22:39:00,
2013-08-02 17:44:00,88.0,72.9,29.72,SE,136,5.0,6.0,61,0.00,,---,0.04,174.00,VWS V14.01,2013-08-02 22:44:00,
2013-08-02 17:49:00,88.0,72.9,29.72,ESE,103,6.0,6.0,61,0.00,,---,0.04,165.00,VWS V14.01,2013-08-02 22:49:00,
2013-08-02 17:54:00,88.0,72.4,29.72,ESE,105,5.0,6.0,60,0.00,,---,0.04,149.00,VWS V14.01,2013-08-02 22:54:00,
2013-08-02 17:59:00,87.8,72.2,29.73,ESE,105,2.0,6.0,60,0.00,,---,0.04,139.00,VWS V14.01,2013-08-02 22:59:00,
2013-08-02 18:00:00,87.8,72.2,29.73,ESE,105,1.0,6.0,60,0.00,,---,0.04,141.00,VWS V14.01,2013-08-02 23:00:00,
2013-08-02 18:04:00,87.8,72.7,29.73,ESE,105,2.0,4.0,61,0.00,,---,0.04,146.00,VWS V14.01,2013-08-02 23:04:00,
2013-08-02 18:09:00,87.8,72.2,29.73,ESE,105,1.0,5.0,60,0.00,,---,0.04,141.00,VWS V14.01,2013-08-02 23:09:00,
2013-08-02 18:23:00,88.0,72.9,29.73,ESE,105,4.0,4.0,61,0.00,,---,0.04,130.00,VWS V14.01,2013-08-02 23:23:00,
2013-08-02 18:28:00,88.0,72.9,29.73,East,95,5.0,6.0,61,0.00,,---,0.04,116.00,VWS V14.01,2013-08-02 23:28:00,
2013-08-02 18:30:00,87.8,72.7,29.73,East,94,4.0,6.0,61,0.00,,---,0.04,111.00,VWS V14.01,2013-08-02 23:30:00,
2013-08-02 18:33:00,87.6,73.0,29.73,East,94,2.0,6.0,62,0.00,,---,0.04,102.00,VWS V14.01,2013-08-02 23:33:00,
2013-08-02 18:38:00,87.6,73.5,29.73,East,97,4.0,7.0,63,0.00,,---,0.04,100.00,VWS V14.01,2013-08-02 23:38:00,
2013-08-02 18:43:00,87.4,73.3,29.73,East,97,4.0,7.0,63,0.00,,---,0.04,91.00,VWS V14.01,2013-08-02 23:43:00,
2013-08-02 18:48:00,87.4,73.3,29.73,East,97,4.0,7.0,63,0.00,,---,0.04,91.00,VWS V14.01,2013-08-02 23:48:00,
2013-08-02 18:53:00,87.4,73.7,29.73,East,98,6.0,7.0,64,0.00,,---,0.04,77.00,VWS V14.01,2013-08-02 23:53:00,
2013-08-02 18:58:00,87.2,74.0,29.73,East,98,4.0,7.0,65,0.00,,---,0.04,67.00,VWS V14.01,2013-08-02 23:58:00,
2013-08-02 19:00:00,87.2,73.6,29.73,East,98,5.0,7.0,64,0.00,,---,0.04,69.00,VWS V14.01,2013-08-03 00:00:00,
2013-08-02 19:03:00,87.0,73.4,29.73,East,99,6.0,7.0,64,0.00,,---,0.04,70.00,VWS V14.01,2013-08-03 00:03:00,
2013-08-02 19:08:00,87.0,73.4,29.74,East,99,4.0,7.0,64,0.00,,---,0.04,67.00,VWS V14.01,2013-08-03 00:08:00,
2013-08-02 19:13:00,87.0,73.8,29.73,East,96,5.0,7.0,65,0.00,,---,0.04,51.00,VWS V14.01,2013-08-03 00:13:00,
2013-08-02 19:18:00,86.7,73.5,29.73,East,86,5.0,7.0,65,0.00,,---,0.04,47.00,VWS V14.01,2013-08-03 00:18:00,
2013-08-02 19:23:00,86.7,73.5,29.73,East,82,5.0,7.0,65,0.00,,---,0.04,46.00,VWS V14.01,2013-08-03 00:23:00,
2013-08-02 19:28:00,86.5,73.3,29.73,East,82,6.0,7.0,65,0.00,,---,0.04,51.00,VWS V14.01,2013-08-03 00:28:00,
2013-08-02 19:30:00,86.5,73.3,29.73,East,82,4.0,7.0,65,0.00,,---,0.04,51.00,VWS V14.01,2013-08-03 00:30:00,
2013-08-02 19:33:00,86.5,73.3,29.73,East,82,4.0,5.0,65,0.00,,---,0.04,56.00,VWS V14.01,2013-08-03 00:33:00,
2013-08-02 19:38:00,86.5,73.3,29.74,East,82,2.0,5.0,65,0.00,,---,0.04,56.00,VWS V14.01,2013-08-03 00:38:00,
2013-08-02 19:43:00,86.5,73.3,29.74,East,81,3.0,5.0,65,0.00,,---,0.04,49.00,VWS V14.01,2013-08-03 00:43:00,
2013-08-02 19:48:00,86.3,73.2,29.74,ENE,63,6.0,7.0,65,0.00,,---,0.04,42.00,VWS V14.01,2013-08-03 00:48:00,
2013-08-02 19:53:00,85.3,74.8,29.74,ENE,59,19.0,20.0,71,0.00,,---,0.04,63.00,VWS V14.01,2013-08-03 00:53:00,
2013-08-02 19:58:00,83.4,74.2,29.74,NE,49,13.0,21.0,74,0.00,,---,0.04,72.00,VWS V14.01,2013-08-03 00:58:00,
2013-08-02 20:00:00,83.0,74.3,29.74,NNE,22,15.0,21.0,75,0.00,,---,0.04,74.00,VWS V14.01,2013-08-03 01:00:00,
2013-08-02 20:03:00,82.6,74.3,29.74,ENE,58,13.0,21.0,76,0.00,,---,0.04,60.00,VWS V14.01,2013-08-03 01:03:00,
2013-08-02 20:08:00,82.2,74.3,29.75,ENE,76,8.0,21.0,77,0.00,,---,0.04,54.00,VWS V14.01,2013-08-03 01:08:00,
2013-08-02 20:13:00,82.0,73.7,29.75,NE,44,11.0,21.0,76,0.00,,---,0.04,46.00,VWS V14.01,2013-08-03 01:13:00,
2013-08-02 20:18:00,81.8,73.5,29.75,ENE,61,18.0,21.0,76,0.00,,---,0.04,32.00,VWS V14.01,2013-08-03 01:18:00,
2013-08-02 20:23:00,81.6,73.3,29.75,NE,56,14.0,21.0,76,0.00,,---,0.04,23.00,VWS V14.01,2013-08-03 01:23:00,
2013-08-02 20:28:00,81.4,73.1,29.75,NE,55,8.0,21.0,76,0.00,,---,0.04,12.00,VWS V14.01,2013-08-03 01:28:00,
2013-08-02 20:30:00,81.4,73.5,29.75,ENE,63,10.0,21.0,77,0.00,,---,0.04,12.00,VWS V14.01,2013-08-03 01:30:00,
2013-08-02 20:33:00,81.2,72.9,29.75,ENE,69,5.0,18.0,76,0.00,,---,0.04,9.00,VWS V14.01,2013-08-03 01:33:00,
2013-08-02 20:38:00,81.1,73.2,29.75,NE,53,14.0,18.0,77,0.00,,---,0.04,5.00,VWS V14.01,2013-08-03 01:38:00,
2013-08-02 20:43:00,80.9,73.0,29.75,ENE,65,13.0,18.0,77,0.00,,---,0.04,0.00,VWS V14.01,2013-08-03 01:43:00,
2013-08-02 20:48:00,80.9,73.0,29.75,ENE,65,12.0,20.0,77,0.00,,---,0.04,0.00,VWS V14.01,2013-08-03 01:48:00,
2013-08-02 20:53:00,80.7,72.8,29.75,East,88,12.0,21.0,77,0.00,,---,0.04,0.00,VWS V14.01,2013-08-03 01:53:00,
2013-08-02 20:58:00,80.5,72.6,29.75,East,83,6.0,21.0,77,0.00,,---,0.04,0.00,VWS V14.01,2013-08-03 01:58:00,
2013-08-02 21:00:00,80.3,72.4,29.75,ENE,66,11.0,21.0,77,0.00,,---,0.04,0.00,VWS V14.01,2013-08-03 02:00:00,
2013-08-02 21:03:00,80.3,72.4,29.75,East,84,6.0,19.0,77,0.00,,---,0.04,0.00,VWS V14.01,2013-08-03 02:03:00,
2013-08-02 21:08:00,80.1,72.6,29.75,East,89,13.0,19.0,78,0.00,,---,0.04,0.00,VWS V14.01,2013-08-03 02:08:00,
2013-08-02 21:13:00,80.1,74.1,29.75,East,86,7.0,19.0,82,0.00,,---,0.04,0.00,VWS V14.01,2013-08-03 02:13:00,
2013-08-02 21:18:00,79.9,72.4,29.76,East,79,17.0,20.0,78,0.00,,---,0.04,0.00,VWS V14.01,2013-08-03 02:18:00,
2013-08-02 21:23:00,79.8,72.3,29.76,ENE,78,17.0,20.0,78,0.00,,---,0.04,0.00,VWS V14.01,2013-08-03 02:23:00,
2013-08-02 21:28:00,79.8,72.7,29.76,East,82,13.0,20.0,79,0.00,,---,0.04,0.00,VWS V14.01,2013-08-03 02:28:00,
2013-08-02 21:30:00,79.6,72.5,29.76,ENE,73,7.0,20.0,79,0.00,,---,0.04,0.00,VWS V14.01,2013-08-03 02:30:00,
2013-08-02 21:33:00,79.6,72.5,29.75,ENE,76,10.0,20.0,79,0.00,,---,0.04,0.00,VWS V14.01,2013-08-03 02:33:00,
2013-08-02 21:38:00,79.4,72.3,29.75,NE,50,8.0,20.0,79,0.00,,---,0.04,0.00,VWS V14.01,2013-08-03 02:38:00,
2013-08-02 21:43:00,79.2,72.1,29.75,ENE,74,17.0,21.0,79,0.00,,---,0.04,0.00,VWS V14.01,2013-08-03 02:43:00,
2013-08-02 21:48:00,79.2,72.1,29.75,ESE,120,7.0,21.0,79,0.00,,---,0.04,0.00,VWS V14.01,2013-08-03 02:48:00,
2013-08-02 21:53:00,79.0,71.9,29.76,East,80,11.0,21.0,79,0.00,,---,0.04,0.00,VWS V14.01,2013-08-03 02:53:00,
2013-08-02 21:58:00,79.0,72.3,29.77,East,88,8.0,21.0,80,0.00,,---,0.04,0.00,VWS V14.01,2013-08-03 02:58:00,
2013-08-02 22:00:00,79.0,72.3,29.78,ENE,76,11.0,21.0,80,0.00,,---,0.04,0.00,VWS V14.01,2013-08-03 03:00:00,
2013-08-02 22:03:00,78.8,72.1,29.78,East,92,13.0,13.0,80,0.00,,---,0.04,0.00,VWS V14.01,2013-08-03 03:03:00,
2013-08-02 22:08:00,78.8,72.1,29.78,East,96,14.0,14.0,80,0.00,,---,0.04,0.00,VWS V14.01,2013-08-03 03:08:00,
2013-08-02 22:13:00,78.6,72.3,29.79,SE,139,7.0,17.0,81,0.00,,---,0.04,0.00,VWS V14.01,2013-08-03 03:13:00,
2013-08-02 22:18:00,78.6,72.3,29.79,East,80,6.0,17.0,81,0.00,,---,0.04,0.00,VWS V14.01,2013-08-03 03:18:00,
2013-08-02 22:23:00,78.6,72.3,29.79,ENE,64,11.0,17.0,81,0.00,,---,0.04,0.00,VWS V14.01,2013-08-03 03:23:00,
2013-08-02 22:28:00,78.5,72.2,29.79,ENE,76,8.0,17.0,81,0.00,,---,0.04,0.00,VWS V14.01,2013-08-03 03:28:00,
2013-08-02 22:30:00,78.5,72.2,29.79,East,89,11.0,17.0,81,0.00,,---,0.04,0.00,VWS V14.01,2013-08-03 03:30:00,
2013-08-02 22:33:00,78.3,72.0,29.79,East,93,12.0,18.0,81,0.00,,---,0.04,0.00,VWS V14.01,2013-08-03 03:33:00,
2013-08-02 22:38:00,78.3,72.0,29.79,East,86,11.0,18.0,81,0.00,,---,0.04,0.00,VWS V14.01,2013-08-03 03:38:00,
2013-08-02 22:43:00,78.3,72.4,29.79,ENE,75,7.0,18.0,82,0.00,,---,0.04,0.00,VWS V14.01,2013-08-03 03:43:00,
2013-08-02 22:48:00,78.1,72.2,29.79,SE,131,6.0,18.0,82,0.00,,---,0.04,0.00,VWS V14.01,2013-08-03 03:48:00,
2013-08-02 22:53:00,78.1,72.2,29.82,SSE,149,8.0,18.0,82,0.00,,---,0.04,0.00,VWS V14.01,2013-08-03 03:53:00,
2013-08-02 22:58:00,78.1,72.2,29.82,South,173,9.0,18.0,82,0.00,,---,0.04,0.00,VWS V14.01,2013-08-03 03:58:00,
2013-08-02 23:00:00,78.1,72.2,29.82,SSE,161,10.0,18.0,82,0.00,,---,0.04,0.00,VWS V14.01,2013-08-03 04:00:00,
2013-08-02 23:01:00,78.1,72.2,29.82,South,182,7.0,13.0,82,0.00,,---,0.04,0.00,VWS V14.01,2013-08-03 04:01:00,
2013-08-02 23:04:00,78.1,71.1,29.83,SSW,193,5.0,15.0,79,0.00,,---,0.04,0.00,VWS V14.01,2013-08-03 04:04:00,
2013-08-02 23:09:00,77.7,69.2,29.83,SSW,198,11.0,21.0,75,0.00,,---,0.04,0.00,VWS V14.01,2013-08-03 04:09:00,
2013-08-02 23:14:00,76.3,67.8,29.84,WSW,257,6.0,21.0,75,0.00,,---,0.04,0.00,VWS V14.01,2013-08-03 04:14:00,
2013-08-02 23:19:00,75.4,67.3,29.84,SW,216,3.0,21.0,76,0.00,,---,0.04,0.00,VWS V14.01,2013-08-03 04:19:00,
2013-08-02 23:24:00,74.7,67.4,29.83,SSW,208,4.0,21.0,78,0.04,,---,0.08,0.00,VWS V14.01,2013-08-03 04:24:00,
2013-08-02 23:29:00,74.2,68.0,29.83,SSW,208,2.0,21.0,81,0.13,,---,0.17,0.00,VWS V14.01,2013-08-03 04:29:00,
2013-08-02 23:30:00,74.2,68.0,29.83,SSW,208,1.0,21.0,81,0.13,,---,0.17,0.00,VWS V14.01,2013-08-03 04:30:00,
2013-08-02 23:34:00,73.7,68.2,29.83,SSW,208,3.0,4.0,83,0.16,,---,0.20,0.00,VWS V14.01,2013-08-03 04:34:00,
2013-08-02 23:39:00,73.2,68.4,29.83,SSW,208,1.0,4.0,85,0.16,,---,0.20,0.00,VWS V14.01,2013-08-03 04:39:00,
2013-08-02 23:44:00,73.0,68.6,29.83,SSW,208,2.0,5.0,86,0.16,,---,0.20,0.00,VWS V14.01,2013-08-03 04:44:00,
2013-08-02 23:49:00,72.8,68.7,29.83,SSW,208,0.0,5.0,87,0.16,,---,0.20,0.00,VWS V14.01,2013-08-03 04:49:00,
2013-08-02 23:54:00,72.8,68.7,29.83,SSW,208,0.0,5.0,87,0.16,,---,0.20,0.00,VWS V14.01,2013-08-03 04:54:00,
2013-08-02 23:59:00,72.8,69.0,29.84,SSW,208,1.0,5.0,88,0.16,,---,0.20,0.00,VWS V14.01,2013-08-03 04:59:00,